sensor_id;sensor_type;location;lat;lon;timestamp;P1;durP1;ratioP1;P2;durP2;ratioP2
6306;SDS011;3186;54.062;9.962;2023-03-15T00:00:45;6.63;;;1.73;;
6306;SDS011;3186;54.062;9.962;2023-03-15T00:03:12;4.53;;;1.20;;
6306;SDS011;3186;54.062;9.962;2023-03-15T00:05:45;4.97;;;1.40;;
6306;SDS011;3186;54.062;9.962;2023-03-15T00:08:12;8.03;;;1.60;;
6306;SDS011;3186;54.062;9.962;2023-03-15T00:10:42;5.17;;;1.03;;
6306;SDS011;3186;54.062;9.962;2023-03-15T00:13:10;7.23;;;1.50;;
6306;SDS011;3186;54.062;9.962;2023-03-15T00:15:43;5.17;;;1.47;;
6306;SDS011;3186;54.062;9.962;2023-03-15T00:18:13;6.70;;;1.30;;
6306;SDS011;3186;54.062;9.962;2023-03-15T00:20:40;4.30;;;1.50;;
6306;SDS011;3186;54.062;9.962;2023-03-15T00:23:06;5.13;;;1.07;;
6306;SDS011;3186;54.062;9.962;2023-03-15T00:25:32;2.93;;;1.20;;
6306;SDS011;3186;54.062;9.962;2023-03-15T00:27:58;5.03;;;1.40;;
6306;SDS011;3186;54.062;9.962;2023-03-15T00:30:24;5.87;;;1.50;;
6306;SDS011;3186;54.062;9.962;2023-03-15T00:32:53;5.17;;;1.27;;
6306;SDS011;3186;54.062;9.962;2023-03-15T00:35:19;2.03;;;0.80;;
6306;SDS011;3186;54.062;9.962;2023-03-15T00:37:45;3.13;;;1.17;;
6306;SDS011;3186;54.062;9.962;2023-03-15T00:40:12;7.33;;;2.13;;
6306;SDS011;3186;54.062;9.962;2023-03-15T00:42:38;4.07;;;1.40;;
6306;SDS011;3186;54.062;9.962;2023-03-15T00:45:05;5.13;;;1.20;;
6306;SDS011;3186;54.062;9.962;2023-03-15T00:47:31;3.97;;;0.90;;
6306;SDS011;3186;54.062;9.962;2023-03-15T00:49:57;5.43;;;1.40;;
6306;SDS011;3186;54.062;9.962;2023-03-15T00:52:23;4.97;;;1.60;;
6306;SDS011;3186;54.062;9.962;2023-03-15T00:54:52;5.00;;;1.33;;
6306;SDS011;3186;54.062;9.962;2023-03-15T00:57:20;4.77;;;1.20;;
6306;SDS011;3186;54.062;9.962;2023-03-15T00:59:46;4.97;;;1.10;;
6306;SDS011;3186;54.062;9.962;2023-03-15T01:02:12;3.83;;;1.10;;
6306;SDS011;3186;54.062;9.962;2023-03-15T01:04:38;3.90;;;1.43;;
6306;SDS011;3186;54.062;9.962;2023-03-15T01:07:04;4.27;;;1.23;;
6306;SDS011;3186;54.062;9.962;2023-03-15T01:09:30;4.60;;;1.60;;
6306;SDS011;3186;54.062;9.962;2023-03-15T01:11:59;5.10;;;1.50;;
6306;SDS011;3186;54.062;9.962;2023-03-15T01:14:25;5.77;;;1.60;;
6306;SDS011;3186;54.062;9.962;2023-03-15T01:16:51;8.10;;;1.80;;
6306;SDS011;3186;54.062;9.962;2023-03-15T01:19:17;5.30;;;1.43;;
6306;SDS011;3186;54.062;9.962;2023-03-15T01:21:44;5.67;;;2.00;;
6306;SDS011;3186;54.062;9.962;2023-03-15T01:24:12;4.20;;;1.60;;
6306;SDS011;3186;54.062;9.962;2023-03-15T01:26:39;4.50;;;1.50;;
6306;SDS011;3186;54.062;9.962;2023-03-15T01:29:06;4.90;;;1.97;;
6306;SDS011;3186;54.062;9.962;2023-03-15T01:31:32;8.17;;;2.00;;
6306;SDS011;3186;54.062;9.962;2023-03-15T01:33:58;5.77;;;2.17;;
6306;SDS011;3186;54.062;9.962;2023-03-15T01:36:28;6.73;;;2.03;;
6306;SDS011;3186;54.062;9.962;2023-03-15T01:38:54;9.13;;;2.20;;
6306;SDS011;3186;54.062;9.962;2023-03-15T01:41:29;9.70;;;2.50;;
6306;SDS011;3186;54.062;9.962;2023-03-15T01:43:55;3.47;;;1.80;;
6306;SDS011;3186;54.062;9.962;2023-03-15T01:46:22;4.17;;;1.73;;
6306;SDS011;3186;54.062;9.962;2023-03-15T01:54:01;5.00;;;1.93;;
6306;SDS011;3186;54.062;9.962;2023-03-15T01:56:32;5.47;;;2.00;;
6306;SDS011;3186;54.062;9.962;2023-03-15T01:59:00;6.20;;;2.20;;
6306;SDS011;3186;54.062;9.962;2023-03-15T02:01:29;8.40;;;2.57;;
6306;SDS011;3186;54.062;9.962;2023-03-15T02:04:06;5.70;;;2.27;;
6306;SDS011;3186;54.062;9.962;2023-03-15T02:06:39;3.67;;;1.30;;
6306;SDS011;3186;54.062;9.962;2023-03-15T02:09:12;6.83;;;2.10;;
6306;SDS011;3186;54.062;9.962;2023-03-15T02:11:41;6.00;;;1.80;;
6306;SDS011;3186;54.062;9.962;2023-03-15T02:14:08;4.37;;;1.73;;
6306;SDS011;3186;54.062;9.962;2023-03-15T02:16:39;4.00;;;1.77;;
6306;SDS011;3186;54.062;9.962;2023-03-15T02:19:10;5.43;;;1.80;;
6306;SDS011;3186;54.062;9.962;2023-03-15T02:27:58;5.23;;;1.67;;
6306;SDS011;3186;54.062;9.962;2023-03-15T02:30:27;3.80;;;1.60;;
6306;SDS011;3186;54.062;9.962;2023-03-15T02:32:53;4.30;;;1.53;;
6306;SDS011;3186;54.062;9.962;2023-03-15T02:35:26;4.33;;;1.90;;
6306;SDS011;3186;54.062;9.962;2023-03-15T02:37:54;2.60;;;1.60;;
6306;SDS011;3186;54.062;9.962;2023-03-15T02:40:20;4.30;;;1.80;;
6306;SDS011;3186;54.062;9.962;2023-03-15T02:42:50;3.20;;;1.20;;
6306;SDS011;3186;54.062;9.962;2023-03-15T02:45:17;3.07;;;1.50;;
6306;SDS011;3186;54.062;9.962;2023-03-15T02:47:44;3.70;;;1.50;;
6306;SDS011;3186;54.062;9.962;2023-03-15T02:50:13;5.90;;;1.57;;
6306;SDS011;3186;54.062;9.962;2023-03-15T02:52:38;2.80;;;1.50;;
6306;SDS011;3186;54.062;9.962;2023-03-15T02:55:05;3.57;;;1.53;;
6306;SDS011;3186;54.062;9.962;2023-03-15T02:57:31;2.73;;;1.53;;
6306;SDS011;3186;54.062;9.962;2023-03-15T02:59:57;1.70;;;1.30;;
6306;SDS011;3186;54.062;9.962;2023-03-15T03:02:26;2.27;;;1.73;;
6306;SDS011;3186;54.062;9.962;2023-03-15T03:04:51;2.37;;;1.70;;
6306;SDS011;3186;54.062;9.962;2023-03-15T03:07:17;3.07;;;1.63;;
6306;SDS011;3186;54.062;9.962;2023-03-15T03:09:47;3.57;;;1.90;;
6306;SDS011;3186;54.062;9.962;2023-03-15T03:12:14;3.80;;;2.00;;
6306;SDS011;3186;54.062;9.962;2023-03-15T03:14:40;3.90;;;1.93;;
6306;SDS011;3186;54.062;9.962;2023-03-15T03:17:11;4.17;;;2.27;;
6306;SDS011;3186;54.062;9.962;2023-03-15T03:19:38;4.37;;;1.93;;
6306;SDS011;3186;54.062;9.962;2023-03-15T03:22:04;4.80;;;1.90;;
6306;SDS011;3186;54.062;9.962;2023-03-15T03:24:30;3.13;;;2.10;;
6306;SDS011;3186;54.062;9.962;2023-03-15T03:26:56;2.40;;;1.67;;
6306;SDS011;3186;54.062;9.962;2023-03-15T03:29:24;4.83;;;2.43;;
6306;SDS011;3186;54.062;9.962;2023-03-15T03:31:52;3.80;;;2.07;;
6306;SDS011;3186;54.062;9.962;2023-03-15T03:34:19;4.27;;;1.87;;
6306;SDS011;3186;54.062;9.962;2023-03-15T03:36:45;2.93;;;1.80;;
6306;SDS011;3186;54.062;9.962;2023-03-15T03:39:17;6.20;;;2.00;;
6306;SDS011;3186;54.062;9.962;2023-03-15T03:41:43;2.90;;;1.63;;
6306;SDS011;3186;54.062;9.962;2023-03-15T03:44:11;2.63;;;1.60;;
6306;SDS011;3186;54.062;9.962;2023-03-15T03:46:37;4.00;;;1.77;;
6306;SDS011;3186;54.062;9.962;2023-03-15T03:49:03;3.60;;;1.80;;
6306;SDS011;3186;54.062;9.962;2023-03-15T03:51:29;5.43;;;1.70;;
6306;SDS011;3186;54.062;9.962;2023-03-15T03:53:58;6.60;;;1.97;;
6306;SDS011;3186;54.062;9.962;2023-03-15T03:56:24;3.90;;;1.67;;
6306;SDS011;3186;54.062;9.962;2023-03-15T03:58:50;6.13;;;1.80;;
6306;SDS011;3186;54.062;9.962;2023-03-15T04:01:36;4.30;;;1.50;;
6306;SDS011;3186;54.062;9.962;2023-03-15T04:04:02;6.43;;;1.30;;
6306;SDS011;3186;54.062;9.962;2023-03-15T04:06:28;4.20;;;1.70;;
6306;SDS011;3186;54.062;9.962;2023-03-15T04:08:55;2.67;;;1.37;;
6306;SDS011;3186;54.062;9.962;2023-03-15T04:11:42;5.07;;;1.73;;
6306;SDS011;3186;54.062;9.962;2023-03-15T04:14:09;3.17;;;1.60;;
6306;SDS011;3186;54.062;9.962;2023-03-15T04:16:37;3.13;;;1.50;;
6306;SDS011;3186;54.062;9.962;2023-03-15T04:19:06;3.33;;;1.30;;
6306;SDS011;3186;54.062;9.962;2023-03-15T04:21:34;4.50;;;1.47;;
6306;SDS011;3186;54.062;9.962;2023-03-15T04:24:20;3.67;;;1.27;;
6306;SDS011;3186;54.062;9.962;2023-03-15T04:27:12;6.40;;;1.50;;
6306;SDS011;3186;54.062;9.962;2023-03-15T04:29:57;4.23;;;1.40;;
6306;SDS011;3186;54.062;9.962;2023-03-15T04:32:41;3.37;;;1.20;;
6306;SDS011;3186;54.062;9.962;2023-03-15T04:35:22;3.87;;;1.50;;
6306;SDS011;3186;54.062;9.962;2023-03-15T04:38:14;4.83;;;1.50;;
6306;SDS011;3186;54.062;9.962;2023-03-15T04:41:06;1.70;;;1.10;;
6306;SDS011;3186;54.062;9.962;2023-03-15T04:44:02;2.77;;;1.50;;
6306;SDS011;3186;54.062;9.962;2023-03-15T04:46:51;4.90;;;1.80;;
6306;SDS011;3186;54.062;9.962;2023-03-15T04:49:29;3.53;;;1.50;;
6306;SDS011;3186;54.062;9.962;2023-03-15T04:52:08;4.07;;;1.40;;
6306;SDS011;3186;54.062;9.962;2023-03-15T04:55:02;2.67;;;1.50;;
6306;SDS011;3186;54.062;9.962;2023-03-15T04:57:54;4.80;;;1.87;;
6306;SDS011;3186;54.062;9.962;2023-03-15T05:00:52;3.13;;;1.83;;
6306;SDS011;3186;54.062;9.962;2023-03-15T05:03:40;2.70;;;1.30;;
6306;SDS011;3186;54.062;9.962;2023-03-15T05:06:15;5.13;;;2.13;;
6306;SDS011;3186;54.062;9.962;2023-03-15T05:08:52;3.43;;;1.60;;
6306;SDS011;3186;54.062;9.962;2023-03-15T05:11:19;3.43;;;2.03;;
6306;SDS011;3186;54.062;9.962;2023-03-15T05:13:57;3.37;;;1.80;;
6306;SDS011;3186;54.062;9.962;2023-03-15T05:16:40;2.13;;;1.90;;
6306;SDS011;3186;54.062;9.962;2023-03-15T05:19:25;6.07;;;2.70;;
6306;SDS011;3186;54.062;9.962;2023-03-15T05:22:00;4.03;;;2.20;;
6306;SDS011;3186;54.062;9.962;2023-03-15T05:24:46;3.27;;;2.13;;
6306;SDS011;3186;54.062;9.962;2023-03-15T05:27:47;5.23;;;2.60;;
6306;SDS011;3186;54.062;9.962;2023-03-15T05:30:34;5.77;;;2.70;;
6306;SDS011;3186;54.062;9.962;2023-03-15T05:33:32;5.80;;;3.20;;
6306;SDS011;3186;54.062;9.962;2023-03-15T05:36:24;7.40;;;3.43;;
6306;SDS011;3186;54.062;9.962;2023-03-15T05:39:12;11.53;;;4.20;;
6306;SDS011;3186;54.062;9.962;2023-03-15T05:42:01;6.83;;;3.67;;
6306;SDS011;3186;54.062;9.962;2023-03-15T05:44:53;6.27;;;3.47;;
6306;SDS011;3186;54.062;9.962;2023-03-15T05:47:46;5.03;;;3.43;;
6306;SDS011;3186;54.062;9.962;2023-03-15T05:50:35;5.73;;;4.00;;
6306;SDS011;3186;54.062;9.962;2023-03-15T05:53:10;7.43;;;4.00;;
6306;SDS011;3186;54.062;9.962;2023-03-15T05:56:02;5.87;;;3.80;;
6306;SDS011;3186;54.062;9.962;2023-03-15T05:59:07;8.10;;;4.67;;
6306;SDS011;3186;54.062;9.962;2023-03-15T06:01:35;10.50;;;4.90;;
6306;SDS011;3186;54.062;9.962;2023-03-15T06:04:30;8.60;;;4.37;;
6306;SDS011;3186;54.062;9.962;2023-03-15T06:06:58;7.90;;;4.83;;
6306;SDS011;3186;54.062;9.962;2023-03-15T06:09:24;10.57;;;5.60;;
6306;SDS011;3186;54.062;9.962;2023-03-15T06:11:49;8.53;;;4.60;;
6306;SDS011;3186;54.062;9.962;2023-03-15T06:14:16;9.00;;;5.30;;
6306;SDS011;3186;54.062;9.962;2023-03-15T06:16:50;10.50;;;6.17;;
6306;SDS011;3186;54.062;9.962;2023-03-15T06:19:18;8.87;;;4.20;;
6306;SDS011;3186;54.062;9.962;2023-03-15T06:21:46;7.63;;;4.30;;
6306;SDS011;3186;54.062;9.962;2023-03-15T06:24:22;9.20;;;4.70;;
6306;SDS011;3186;54.062;9.962;2023-03-15T06:26:49;7.10;;;4.27;;
6306;SDS011;3186;54.062;9.962;2023-03-15T06:29:15;9.33;;;4.60;;
6306;SDS011;3186;54.062;9.962;2023-03-15T06:31:44;7.10;;;4.10;;
6306;SDS011;3186;54.062;9.962;2023-03-15T06:34:12;7.83;;;4.20;;
6306;SDS011;3186;54.062;9.962;2023-03-15T06:36:38;8.17;;;4.57;;
6306;SDS011;3186;54.062;9.962;2023-03-15T06:39:07;8.97;;;3.80;;
6306;SDS011;3186;54.062;9.962;2023-03-15T06:41:35;4.40;;;2.93;;
6306;SDS011;3186;54.062;9.962;2023-03-15T06:44:09;10.57;;;4.87;;
6306;SDS011;3186;54.062;9.962;2023-03-15T06:46:37;5.97;;;3.50;;
6306;SDS011;3186;54.062;9.962;2023-03-15T06:49:04;8.87;;;3.60;;
6306;SDS011;3186;54.062;9.962;2023-03-15T06:51:30;7.63;;;3.23;;
6306;SDS011;3186;54.062;9.962;2023-03-15T06:53:56;5.37;;;3.53;;
6306;SDS011;3186;54.062;9.962;2023-03-15T06:56:22;8.23;;;3.20;;
6306;SDS011;3186;54.062;9.962;2023-03-15T06:58:48;6.37;;;3.50;;
6306;SDS011;3186;54.062;9.962;2023-03-15T07:01:14;4.40;;;3.50;;
6306;SDS011;3186;54.062;9.962;2023-03-15T07:03:40;9.07;;;4.17;;
6306;SDS011;3186;54.062;9.962;2023-03-15T07:06:07;4.13;;;2.87;;
6306;SDS011;3186;54.062;9.962;2023-03-15T07:08:33;8.77;;;4.07;;
6306;SDS011;3186;54.062;9.962;2023-03-15T07:10:59;7.77;;;3.87;;
6306;SDS011;3186;54.062;9.962;2023-03-15T07:13:26;6.43;;;3.63;;
6306;SDS011;3186;54.062;9.962;2023-03-15T07:15:52;9.40;;;4.67;;
6306;SDS011;3186;54.062;9.962;2023-03-15T07:18:18;9.07;;;4.60;;
6306;SDS011;3186;54.062;9.962;2023-03-15T07:20:44;8.60;;;3.77;;
6306;SDS011;3186;54.062;9.962;2023-03-15T07:23:10;6.23;;;3.83;;
6306;SDS011;3186;54.062;9.962;2023-03-15T07:25:36;8.37;;;4.20;;
6306;SDS011;3186;54.062;9.962;2023-03-15T07:28:02;6.13;;;3.47;;
6306;SDS011;3186;54.062;9.962;2023-03-15T07:30:28;6.43;;;3.10;;
6306;SDS011;3186;54.062;9.962;2023-03-15T07:32:54;5.73;;;3.03;;
6306;SDS011;3186;54.062;9.962;2023-03-15T07:35:20;6.17;;;3.67;;
6306;SDS011;3186;54.062;9.962;2023-03-15T07:37:46;4.13;;;2.77;;
6306;SDS011;3186;54.062;9.962;2023-03-15T07:40:12;6.57;;;2.87;;
6306;SDS011;3186;54.062;9.962;2023-03-15T07:42:38;5.10;;;3.00;;
6306;SDS011;3186;54.062;9.962;2023-03-15T07:45:06;4.67;;;2.60;;
6306;SDS011;3186;54.062;9.962;2023-03-15T07:47:33;4.93;;;3.00;;
6306;SDS011;3186;54.062;9.962;2023-03-15T07:49:59;6.20;;;3.07;;
6306;SDS011;3186;54.062;9.962;2023-03-15T07:52:25;4.53;;;2.03;;
6306;SDS011;3186;54.062;9.962;2023-03-15T07:54:51;5.17;;;2.30;;
6306;SDS011;3186;54.062;9.962;2023-03-15T07:57:17;6.23;;;2.17;;
6306;SDS011;3186;54.062;9.962;2023-03-15T07:59:43;4.07;;;2.17;;
6306;SDS011;3186;54.062;9.962;2023-03-15T08:02:12;3.60;;;1.87;;
6306;SDS011;3186;54.062;9.962;2023-03-15T08:04:39;7.57;;;2.37;;
6306;SDS011;3186;54.062;9.962;2023-03-15T08:07:05;6.43;;;2.07;;
6306;SDS011;3186;54.062;9.962;2023-03-15T08:09:31;4.07;;;1.63;;
6306;SDS011;3186;54.062;9.962;2023-03-15T08:11:58;4.87;;;1.80;;
6306;SDS011;3186;54.062;9.962;2023-03-15T08:14:24;3.63;;;1.77;;
6306;SDS011;3186;54.062;9.962;2023-03-15T08:16:50;4.23;;;1.90;;
6306;SDS011;3186;54.062;9.962;2023-03-15T08:19:16;7.57;;;2.10;;
6306;SDS011;3186;54.062;9.962;2023-03-15T08:21:42;6.23;;;1.90;;
6306;SDS011;3186;54.062;9.962;2023-03-15T08:24:12;6.13;;;1.80;;
6306;SDS011;3186;54.062;9.962;2023-03-15T08:26:39;6.47;;;2.10;;
6306;SDS011;3186;54.062;9.962;2023-03-15T08:29:07;6.27;;;2.63;;
6306;SDS011;3186;54.062;9.962;2023-03-15T08:31:33;7.60;;;2.30;;
6306;SDS011;3186;54.062;9.962;2023-03-15T08:33:59;7.10;;;2.20;;
6306;SDS011;3186;54.062;9.962;2023-03-15T08:36:25;7.77;;;2.30;;
6306;SDS011;3186;54.062;9.962;2023-03-15T08:38:51;6.70;;;2.03;;
6306;SDS011;3186;54.062;9.962;2023-03-15T08:41:16;9.23;;;2.70;;
6306;SDS011;3186;54.062;9.962;2023-03-15T08:43:42;6.57;;;2.20;;
6306;SDS011;3186;54.062;9.962;2023-03-15T08:46:08;5.80;;;2.23;;
6306;SDS011;3186;54.062;9.962;2023-03-15T08:48:34;5.53;;;2.13;;
6306;SDS011;3186;54.062;9.962;2023-03-15T08:51:00;5.00;;;2.17;;
6306;SDS011;3186;54.062;9.962;2023-03-15T08:53:30;6.13;;;2.03;;
6306;SDS011;3186;54.062;9.962;2023-03-15T08:55:56;3.63;;;2.03;;
6306;SDS011;3186;54.062;9.962;2023-03-15T08:58:22;5.03;;;2.43;;
6306;SDS011;3186;54.062;9.962;2023-03-15T09:00:49;3.70;;;1.83;;
6306;SDS011;3186;54.062;9.962;2023-03-15T09:03:16;9.87;;;2.10;;
6306;SDS011;3186;54.062;9.962;2023-03-15T09:05:43;6.23;;;2.47;;
6306;SDS011;3186;54.062;9.962;2023-03-15T09:08:09;7.93;;;2.13;;
6306;SDS011;3186;54.062;9.962;2023-03-15T09:10:35;9.23;;;2.73;;
6306;SDS011;3186;54.062;9.962;2023-03-15T09:13:01;3.93;;;1.80;;
6306;SDS011;3186;54.062;9.962;2023-03-15T09:15:27;9.10;;;2.10;;
6306;SDS011;3186;54.062;9.962;2023-03-15T09:17:53;6.03;;;2.53;;
6306;SDS011;3186;54.062;9.962;2023-03-15T09:20:19;5.20;;;2.50;;
6306;SDS011;3186;54.062;9.962;2023-03-15T09:22:56;6.63;;;2.77;;
6306;SDS011;3186;54.062;9.962;2023-03-15T09:25:22;8.10;;;2.50;;
6306;SDS011;3186;54.062;9.962;2023-03-15T09:27:49;11.17;;;2.53;;
6306;SDS011;3186;54.062;9.962;2023-03-15T09:30:15;6.20;;;2.10;;
6306;SDS011;3186;54.062;9.962;2023-03-15T09:32:41;4.53;;;2.33;;
6306;SDS011;3186;54.062;9.962;2023-03-15T09:35:09;8.87;;;2.30;;
6306;SDS011;3186;54.062;9.962;2023-03-15T09:37:39;3.57;;;1.80;;
6306;SDS011;3186;54.062;9.962;2023-03-15T09:40:06;6.53;;;2.03;;
6306;SDS011;3186;54.062;9.962;2023-03-15T09:48:09;3.77;;;1.60;;
6306;SDS011;3186;54.062;9.962;2023-03-15T09:51:01;6.67;;;1.97;;
6306;SDS011;3186;54.062;9.962;2023-03-15T09:58:51;6.93;;;1.80;;
6306;SDS011;3186;54.062;9.962;2023-03-15T10:01:21;6.57;;;2.00;;
6306;SDS011;3186;54.062;9.962;2023-03-15T10:03:57;6.63;;;1.90;;
6306;SDS011;3186;54.062;9.962;2023-03-15T10:06:30;6.90;;;1.87;;
6306;SDS011;3186;54.062;9.962;2023-03-15T10:09:02;7.20;;;1.50;;
6306;SDS011;3186;54.062;9.962;2023-03-15T10:11:44;4.67;;;1.33;;
6306;SDS011;3186;54.062;9.962;2023-03-15T10:20:38;7.03;;;1.20;;
6306;SDS011;3186;54.062;9.962;2023-03-15T10:23:10;6.03;;;1.70;;
6306;SDS011;3186;54.062;9.962;2023-03-15T10:25:44;6.57;;;1.40;;
6306;SDS011;3186;54.062;9.962;2023-03-15T10:30:55;7.00;;;2.00;;
6306;SDS011;3186;54.062;9.962;2023-03-15T10:33:31;8.70;;;1.30;;
6306;SDS011;3186;54.062;9.962;2023-03-15T10:36:00;2.10;;;1.00;;
6306;SDS011;3186;54.062;9.962;2023-03-15T10:38:28;3.13;;;1.03;;
6306;SDS011;3186;54.062;9.962;2023-03-15T10:40:55;6.10;;;1.17;;
6306;SDS011;3186;54.062;9.962;2023-03-15T10:43:27;5.33;;;1.23;;
6306;SDS011;3186;54.062;9.962;2023-03-15T10:48:22;3.83;;;1.30;;
6306;SDS011;3186;54.062;9.962;2023-03-15T10:50:49;3.97;;;1.20;;
6306;SDS011;3186;54.062;9.962;2023-03-15T10:53:16;6.53;;;1.60;;
6306;SDS011;3186;54.062;9.962;2023-03-15T10:55:46;4.07;;;1.17;;
6306;SDS011;3186;54.062;9.962;2023-03-15T10:58:17;3.47;;;1.20;;
6306;SDS011;3186;54.062;9.962;2023-03-15T11:00:50;5.07;;;1.27;;
6306;SDS011;3186;54.062;9.962;2023-03-15T11:03:24;11.23;;;2.10;;
6306;SDS011;3186;54.062;9.962;2023-03-15T11:05:52;11.23;;;1.90;;
6306;SDS011;3186;54.062;9.962;2023-03-15T11:08:21;5.20;;;1.07;;
6306;SDS011;3186;54.062;9.962;2023-03-15T11:10:56;5.93;;;1.57;;
6306;SDS011;3186;54.062;9.962;2023-03-15T11:13:30;5.27;;;1.60;;
6306;SDS011;3186;54.062;9.962;2023-03-15T11:16:11;6.63;;;1.43;;
6306;SDS011;3186;54.062;9.962;2023-03-15T11:18:45;6.23;;;1.50;;
6306;SDS011;3186;54.062;9.962;2023-03-15T11:21:20;5.20;;;1.80;;
6306;SDS011;3186;54.062;9.962;2023-03-15T11:23:51;8.00;;;1.40;;
6306;SDS011;3186;54.062;9.962;2023-03-15T11:28:51;7.70;;;1.73;;
6306;SDS011;3186;54.062;9.962;2023-03-15T11:31:25;3.80;;;1.50;;
6306;SDS011;3186;54.062;9.962;2023-03-15T11:36:20;4.90;;;2.00;;
6306;SDS011;3186;54.062;9.962;2023-03-15T11:38:47;6.80;;;1.87;;
6306;SDS011;3186;54.062;9.962;2023-03-15T11:41:35;5.33;;;1.70;;
6306;SDS011;3186;54.062;9.962;2023-03-15T11:46:50;11.63;;;2.17;;
6306;SDS011;3186;54.062;9.962;2023-03-15T11:52:06;5.80;;;1.50;;
6306;SDS011;3186;54.062;9.962;2023-03-15T11:54:32;5.93;;;2.10;;
6306;SDS011;3186;54.062;9.962;2023-03-15T11:57:05;6.73;;;1.80;;
6306;SDS011;3186;54.062;9.962;2023-03-15T11:59:52;6.20;;;1.70;;
6306;SDS011;3186;54.062;9.962;2023-03-15T12:04:47;5.87;;;1.77;;
6306;SDS011;3186;54.062;9.962;2023-03-15T12:22:37;4.47;;;1.50;;
6306;SDS011;3186;54.062;9.962;2023-03-15T12:25:18;3.33;;;1.20;;
6306;SDS011;3186;54.062;9.962;2023-03-15T12:27:49;6.50;;;1.43;;
6306;SDS011;3186;54.062;9.962;2023-03-15T12:30:28;8.90;;;1.80;;
6306;SDS011;3186;54.062;9.962;2023-03-15T12:33:12;8.17;;;1.80;;
6306;SDS011;3186;54.062;9.962;2023-03-15T12:35:42;6.47;;;1.70;;
6306;SDS011;3186;54.062;9.962;2023-03-15T12:38:13;8.60;;;1.53;;
6306;SDS011;3186;54.062;9.962;2023-03-15T12:43:33;13.07;;;2.23;;
6306;SDS011;3186;54.062;9.962;2023-03-15T12:54:24;10.50;;;2.53;;
6306;SDS011;3186;54.062;9.962;2023-03-15T12:57:00;9.23;;;1.80;;
6306;SDS011;3186;54.062;9.962;2023-03-15T13:02:15;10.37;;;2.03;;
6306;SDS011;3186;54.062;9.962;2023-03-15T13:04:48;9.33;;;1.97;;
6306;SDS011;3186;54.062;9.962;2023-03-15T13:09:48;7.40;;;2.27;;
6306;SDS011;3186;54.062;9.962;2023-03-15T13:15:18;9.70;;;1.60;;
6306;SDS011;3186;54.062;9.962;2023-03-15T13:26:09;7.27;;;1.50;;
6306;SDS011;3186;54.062;9.962;2023-03-15T13:31:32;4.83;;;1.37;;
6306;SDS011;3186;54.062;9.962;2023-03-15T13:34:10;7.93;;;1.67;;
6306;SDS011;3186;54.062;9.962;2023-03-15T13:36:47;8.37;;;1.90;;
6306;SDS011;3186;54.062;9.962;2023-03-15T13:39:22;8.70;;;1.50;;
6306;SDS011;3186;54.062;9.962;2023-03-15T13:44:26;7.03;;;1.53;;
6306;SDS011;3186;54.062;9.962;2023-03-15T13:46:53;8.97;;;2.43;;
6306;SDS011;3186;54.062;9.962;2023-03-15T13:49:21;8.37;;;2.07;;
6306;SDS011;3186;54.062;9.962;2023-03-15T13:51:51;11.07;;;1.83;;
6306;SDS011;3186;54.062;9.962;2023-03-15T13:54:19;4.17;;;1.27;;
6306;SDS011;3186;54.062;9.962;2023-03-15T13:56:55;9.13;;;2.10;;
6306;SDS011;3186;54.062;9.962;2023-03-15T13:59:31;7.40;;;2.00;;
6306;SDS011;3186;54.062;9.962;2023-03-15T14:02:02;11.33;;;2.07;;
6306;SDS011;3186;54.062;9.962;2023-03-15T14:04:30;5.33;;;1.47;;
6306;SDS011;3186;54.062;9.962;2023-03-15T14:07:14;9.03;;;2.20;;
6306;SDS011;3186;54.062;9.962;2023-03-15T14:10:33;11.50;;;1.93;;
6306;SDS011;3186;54.062;9.962;2023-03-15T14:15:49;7.87;;;1.93;;
6306;SDS011;3186;54.062;9.962;2023-03-15T14:18:23;13.57;;;2.23;;
6306;SDS011;3186;54.062;9.962;2023-03-15T14:21:07;15.47;;;2.77;;
6306;SDS011;3186;54.062;9.962;2023-03-15T14:23:46;12.30;;;2.77;;
6306;SDS011;3186;54.062;9.962;2023-03-15T14:26:23;7.47;;;2.80;;
6306;SDS011;3186;54.062;9.962;2023-03-15T14:29:01;10.03;;;2.20;;
6306;SDS011;3186;54.062;9.962;2023-03-15T14:31:39;9.03;;;3.03;;
6306;SDS011;3186;54.062;9.962;2023-03-15T14:34:24;12.83;;;2.97;;
6306;SDS011;3186;54.062;9.962;2023-03-15T14:42:41;7.47;;;2.00;;
6306;SDS011;3186;54.062;9.962;2023-03-15T14:45:10;7.73;;;2.33;;
6306;SDS011;3186;54.062;9.962;2023-03-15T14:47:38;12.80;;;2.40;;
6306;SDS011;3186;54.062;9.962;2023-03-15T14:50:18;9.77;;;1.97;;
6306;SDS011;3186;54.062;9.962;2023-03-15T14:52:46;11.37;;;2.37;;
6306;SDS011;3186;54.062;9.962;2023-03-15T14:55:19;7.47;;;2.10;;
6306;SDS011;3186;54.062;9.962;2023-03-15T14:57:47;10.80;;;2.67;;
6306;SDS011;3186;54.062;9.962;2023-03-15T15:00:14;8.77;;;2.53;;
6306;SDS011;3186;54.062;9.962;2023-03-15T15:02:44;10.33;;;2.17;;
6306;SDS011;3186;54.062;9.962;2023-03-15T15:05:22;13.03;;;2.70;;
6306;SDS011;3186;54.062;9.962;2023-03-15T15:08:03;11.43;;;2.17;;
6306;SDS011;3186;54.062;9.962;2023-03-15T15:10:37;9.50;;;2.23;;
6306;SDS011;3186;54.062;9.962;2023-03-15T15:13:04;10.17;;;2.27;;
6306;SDS011;3186;54.062;9.962;2023-03-15T15:15:30;11.63;;;2.07;;
6306;SDS011;3186;54.062;9.962;2023-03-15T15:17:56;8.17;;;1.90;;
6306;SDS011;3186;54.062;9.962;2023-03-15T15:20:22;8.07;;;2.30;;
6306;SDS011;3186;54.062;9.962;2023-03-15T15:22:49;10.33;;;1.93;;
6306;SDS011;3186;54.062;9.962;2023-03-15T15:25:16;6.57;;;2.20;;
6306;SDS011;3186;54.062;9.962;2023-03-15T15:27:44;9.10;;;2.30;;
6306;SDS011;3186;54.062;9.962;2023-03-15T15:30:15;7.97;;;2.00;;
6306;SDS011;3186;54.062;9.962;2023-03-15T15:32:46;9.27;;;2.00;;
6306;SDS011;3186;54.062;9.962;2023-03-15T15:35:13;13.77;;;2.30;;
6306;SDS011;3186;54.062;9.962;2023-03-15T15:37:41;9.40;;;2.33;;
6306;SDS011;3186;54.062;9.962;2023-03-15T15:40:16;10.60;;;2.20;;
6306;SDS011;3186;54.062;9.962;2023-03-15T15:43:00;7.20;;;2.23;;
6306;SDS011;3186;54.062;9.962;2023-03-15T15:45:27;10.37;;;2.67;;
6306;SDS011;3186;54.062;9.962;2023-03-15T15:47:54;12.13;;;2.00;;
6306;SDS011;3186;54.062;9.962;2023-03-15T15:50:20;8.37;;;2.20;;
6306;SDS011;3186;54.062;9.962;2023-03-15T15:52:47;9.77;;;2.03;;
6306;SDS011;3186;54.062;9.962;2023-03-15T15:55:16;10.53;;;2.13;;
6306;SDS011;3186;54.062;9.962;2023-03-15T15:57:48;16.80;;;3.33;;
6306;SDS011;3186;54.062;9.962;2023-03-15T16:00:16;13.03;;;2.77;;
6306;SDS011;3186;54.062;9.962;2023-03-15T16:02:44;8.00;;;1.97;;
6306;SDS011;3186;54.062;9.962;2023-03-15T16:05:11;12.40;;;2.60;;
6306;SDS011;3186;54.062;9.962;2023-03-15T16:07:37;10.13;;;2.10;;
6306;SDS011;3186;54.062;9.962;2023-03-15T16:10:04;9.63;;;2.77;;
6306;SDS011;3186;54.062;9.962;2023-03-15T16:12:32;12.93;;;2.17;;
6306;SDS011;3186;54.062;9.962;2023-03-15T16:14:58;9.00;;;2.70;;
6306;SDS011;3186;54.062;9.962;2023-03-15T16:17:24;7.63;;;2.43;;
6306;SDS011;3186;54.062;9.962;2023-03-15T16:19:51;15.47;;;2.60;;
6306;SDS011;3186;54.062;9.962;2023-03-15T16:22:18;9.13;;;2.53;;
6306;SDS011;3186;54.062;9.962;2023-03-15T16:24:47;8.13;;;2.23;;
6306;SDS011;3186;54.062;9.962;2023-03-15T16:27:22;8.87;;;2.50;;
6306;SDS011;3186;54.062;9.962;2023-03-15T16:29:51;13.33;;;2.73;;
6306;SDS011;3186;54.062;9.962;2023-03-15T16:32:23;10.87;;;2.37;;
6306;SDS011;3186;54.062;9.962;2023-03-15T16:34:50;15.23;;;2.43;;
6306;SDS011;3186;54.062;9.962;2023-03-15T16:37:21;10.03;;;3.10;;
6306;SDS011;3186;54.062;9.962;2023-03-15T16:39:50;8.60;;;2.30;;
6306;SDS011;3186;54.062;9.962;2023-03-15T16:42:20;11.43;;;2.43;;
6306;SDS011;3186;54.062;9.962;2023-03-15T16:44:48;8.83;;;2.53;;
6306;SDS011;3186;54.062;9.962;2023-03-15T16:47:15;10.77;;;2.07;;
6306;SDS011;3186;54.062;9.962;2023-03-15T16:49:42;9.87;;;2.63;;
6306;SDS011;3186;54.062;9.962;2023-03-15T16:52:08;10.00;;;2.33;;
6306;SDS011;3186;54.062;9.962;2023-03-15T16:54:36;8.83;;;2.20;;
6306;SDS011;3186;54.062;9.962;2023-03-15T16:57:02;8.87;;;2.70;;
6306;SDS011;3186;54.062;9.962;2023-03-15T16:59:35;6.40;;;2.23;;
6306;SDS011;3186;54.062;9.962;2023-03-15T17:02:01;10.60;;;2.60;;
6306;SDS011;3186;54.062;9.962;2023-03-15T17:04:27;7.73;;;2.30;;
6306;SDS011;3186;54.062;9.962;2023-03-15T17:06:52;13.67;;;2.73;;
6306;SDS011;3186;54.062;9.962;2023-03-15T17:09:20;9.90;;;2.57;;
6306;SDS011;3186;54.062;9.962;2023-03-15T17:11:47;12.83;;;3.33;;
6306;SDS011;3186;54.062;9.962;2023-03-15T17:14:20;11.73;;;2.80;;
6306;SDS011;3186;54.062;9.962;2023-03-15T17:16:51;9.13;;;2.70;;
6306;SDS011;3186;54.062;9.962;2023-03-15T17:19:17;15.57;;;2.90;;